sensor_id;sensor_type;location;lat;lon;timestamp;pressure;altitude;pressure_sealevel;temperature;humidity
52855;BME280;38719;51.418;7.286;2023-03-14T00:01:09;97354.53;;;11.57;67.44
52855;BME280;38719;51.418;7.286;2023-03-14T00:03:37;97341.09;;;11.68;67.34
52855;BME280;38719;51.418;7.286;2023-03-14T00:06:06;97339.41;;;11.57;67.27
52855;BME280;38719;51.418;7.286;2023-03-14T00:08:35;97327.63;;;11.60;67.37
52855;BME280;38719;51.418;7.286;2023-03-14T00:11:07;97325.22;;;11.67;66.57
52855;BME280;38719;51.418;7.286;2023-03-14T00:13:35;97316.38;;;11.86;66.57
52855;BME280;38719;51.418;7.286;2023-03-14T00:16:04;97306.69;;;11.75;66.16
52855;BME280;38719;51.418;7.286;2023-03-14T00:18:32;97297.59;;;11.68;66.07
52855;BME280;38719;51.418;7.286;2023-03-14T00:21:00;97301.53;;;11.64;66.47
52855;BME280;38719;51.418;7.286;2023-03-14T00:23:29;97291.13;;;11.60;66.83
52855;BME280;38719;51.418;7.286;2023-03-14T00:26:03;97288.31;;;11.72;66.11
52855;BME280;38719;51.418;7.286;2023-03-14T00:28:31;97288.47;;;11.70;66.06
52855;BME280;38719;51.418;7.286;2023-03-14T00:30:58;97304.03;;;11.75;66.07
52855;BME280;38719;51.418;7.286;2023-03-14T00:33:26;97324.81;;;11.81;65.66
52855;BME280;38719;51.418;7.286;2023-03-14T00:35:54;97346.28;;;11.70;66.31
52855;BME280;38719;51.418;7.286;2023-03-14T00:38:23;97349.34;;;11.65;66.02
52855;BME280;38719;51.418;7.286;2023-03-14T00:40:51;97348.22;;;11.68;65.79
52855;BME280;38719;51.418;7.286;2023-03-14T00:43:20;97352.59;;;11.78;65.56
52855;BME280;38719;51.418;7.286;2023-03-14T00:45:49;97344.19;;;11.83;65.84
52855;BME280;38719;51.418;7.286;2023-03-14T00:48:17;97332.38;;;11.66;65.44
52855;BME280;38719;51.418;7.286;2023-03-14T00:50:45;97339.66;;;11.54;66.51
52855;BME280;38719;51.418;7.286;2023-03-14T00:53:13;97320.19;;;11.83;66.52
52855;BME280;38719;51.418;7.286;2023-03-14T00:55:42;97316.66;;;11.83;66.14
52855;BME280;38719;51.418;7.286;2023-03-14T00:58:10;97313.31;;;11.81;66.11
52855;BME280;38719;51.418;7.286;2023-03-14T01:00:40;97316.94;;;11.80;65.60
52855;BME280;38719;51.418;7.286;2023-03-14T01:03:09;97313.31;;;11.71;66.08
52855;BME280;38719;51.418;7.286;2023-03-14T01:05:37;97341.34;;;11.85;67.56
52855;BME280;38719;51.418;7.286;2023-03-14T01:08:06;97355.66;;;11.84;68.56
52855;BME280;38719;51.418;7.286;2023-03-14T01:10:37;97370.31;;;11.99;68.92
52855;BME280;38719;51.418;7.286;2023-03-14T01:13:05;97393.03;;;12.03;70.56
52855;BME280;38719;51.418;7.286;2023-03-14T01:15:33;97404.34;;;11.56;71.80
52855;BME280;38719;51.418;7.286;2023-03-14T01:18:02;97405.94;;;11.28;71.62
52855;BME280;38719;51.418;7.286;2023-03-14T01:20:30;97403.91;;;11.01;72.93
52855;BME280;38719;51.418;7.286;2023-03-14T01:22:57;97380.72;;;10.82;73.30
52855;BME280;38719;51.418;7.286;2023-03-14T01:25:25;97393.50;;;10.88;73.26
52855;BME280;38719;51.418;7.286;2023-03-14T01:27:52;97384.41;;;10.90;73.00
52855;BME280;38719;51.418;7.286;2023-03-14T01:30:20;97386.09;;;11.01;72.87
52855;BME280;38719;51.418;7.286;2023-03-14T01:32:47;97378.00;;;10.72;73.56
52855;BME280;38719;51.418;7.286;2023-03-14T01:35:17;97377.81;;;10.63;74.51
52855;BME280;38719;51.418;7.286;2023-03-14T01:37:44;97368.81;;;10.33;74.83
52855;BME280;38719;51.418;7.286;2023-03-14T01:40:12;97372.69;;;10.51;75.26
52855;BME280;38719;51.418;7.286;2023-03-14T01:42:46;97348.63;;;10.52;74.92
52855;BME280;38719;51.418;7.286;2023-03-14T01:48:21;97348.28;;;10.24;75.84
52855;BME280;38719;51.418;7.286;2023-03-14T01:50:50;97340.13;;;10.58;75.04
52855;BME280;38719;51.418;7.286;2023-03-14T01:53:18;97341.63;;;10.51;74.55
52855;BME280;38719;51.418;7.286;2023-03-14T01:55:47;97346.81;;;10.53;75.34
52855;BME280;38719;51.418;7.286;2023-03-14T01:58:16;97336.94;;;10.64;75.00
52855;BME280;38719;51.418;7.286;2023-03-14T02:00:46;97335.69;;;10.69;74.93
52855;BME280;38719;51.418;7.286;2023-03-14T02:03:16;97330.00;;;10.52;74.52
52855;BME280;38719;51.418;7.286;2023-03-14T02:05:45;97325.31;;;10.44;75.49
52855;BME280;38719;51.418;7.286;2023-03-14T02:08:17;97317.00;;;10.59;74.94
52855;BME280;38719;51.418;7.286;2023-03-14T02:10:48;97321.41;;;10.39;75.50
52855;BME280;38719;51.418;7.286;2023-03-14T02:13:17;97317.88;;;10.17;76.23
52855;BME280;38719;51.418;7.286;2023-03-14T02:15:46;97312.38;;;10.30;75.77
52855;BME280;38719;51.418;7.286;2023-03-14T02:18:14;97322.72;;;10.33;75.83
52855;BME280;38719;51.418;7.286;2023-03-14T02:20:47;97321.25;;;10.19;76.49
52855;BME280;38719;51.418;7.286;2023-03-14T02:23:26;97320.22;;;10.31;76.45
52855;BME280;38719;51.418;7.286;2023-03-14T02:26:06;97323.59;;;10.33;76.19
52855;BME280;38719;51.418;7.286;2023-03-14T02:28:37;97315.03;;;10.30;75.69
52855;BME280;38719;51.418;7.286;2023-03-14T02:31:05;97319.38;;;10.31;76.04
52855;BME280;38719;51.418;7.286;2023-03-14T02:33:35;97305.09;;;10.53;75.27
52855;BME280;38719;51.418;7.286;2023-03-14T02:36:07;97302.97;;;10.47;75.25
52855;BME280;38719;51.418;7.286;2023-03-14T02:38:39;97310.56;;;10.61;74.94
52855;BME280;38719;51.418;7.286;2023-03-14T02:41:09;97313.50;;;10.58;75.32
52855;BME280;38719;51.418;7.286;2023-03-14T02:43:37;97317.00;;;10.59;74.84
52855;BME280;38719;51.418;7.286;2023-03-14T02:46:07;97317.50;;;10.43;75.46
52855;BME280;38719;51.418;7.286;2023-03-14T02:48:39;97314.16;;;10.51;75.66
52855;BME280;38719;51.418;7.286;2023-03-14T02:51:08;97314.38;;;10.38;75.87
52855;BME280;38719;51.418;7.286;2023-03-14T02:53:36;97312.34;;;10.51;75.96
52855;BME280;38719;51.418;7.286;2023-03-14T02:56:07;97319.47;;;10.51;74.74
52855;BME280;38719;51.418;7.286;2023-03-14T02:58:35;97315.25;;;10.48;75.32
52855;BME280;38719;51.418;7.286;2023-03-14T03:01:04;97314.72;;;10.54;75.33
52855;BME280;38719;51.418;7.286;2023-03-14T03:03:32;97311.09;;;10.55;74.70
52855;BME280;38719;51.418;7.286;2023-03-14T03:06:00;97300.31;;;10.47;75.07
52855;BME280;38719;51.418;7.286;2023-03-14T03:08:28;97303.84;;;10.57;74.16
52855;BME280;38719;51.418;7.286;2023-03-14T03:10:57;97295.41;;;10.52;74.54
52855;BME280;38719;51.418;7.286;2023-03-14T03:13:25;97298.28;;;10.39;74.52
52855;BME280;38719;51.418;7.286;2023-03-14T03:15:53;97295.38;;;10.42;74.56
52855;BME280;38719;51.418;7.286;2023-03-14T03:18:22;97293.72;;;10.51;74.43
52855;BME280;38719;51.418;7.286;2023-03-14T03:20:49;97298.19;;;10.41;74.43
52855;BME280;38719;51.418;7.286;2023-03-14T03:23:16;97289.47;;;10.39;74.58
52855;BME280;38719;51.418;7.286;2023-03-14T03:25:48;97288.03;;;10.35;75.35
52855;BME280;38719;51.418;7.286;2023-03-14T03:28:15;97278.13;;;10.37;75.09
52855;BME280;38719;51.418;7.286;2023-03-14T03:30:43;97275.47;;;10.37;74.95
52855;BME280;38719;51.418;7.286;2023-03-14T03:33:11;97277.19;;;10.47;74.69
52855;BME280;38719;51.418;7.286;2023-03-14T03:35:46;97269.13;;;10.69;74.03
52855;BME280;38719;51.418;7.286;2023-03-14T03:38:14;97275.31;;;10.69;73.52
52855;BME280;38719;51.418;7.286;2023-03-14T03:40:42;97283.66;;;10.55;73.62
52855;BME280;38719;51.418;7.286;2023-03-14T03:43:10;97283.28;;;10.59;74.10
52855;BME280;38719;51.418;7.286;2023-03-14T03:45:37;97283.88;;;10.42;74.27
52855;BME280;38719;51.418;7.286;2023-03-14T03:48:05;97289.81;;;10.55;74.13
52855;BME280;38719;51.418;7.286;2023-03-14T03:50:32;97284.72;;;10.73;73.83
52855;BME280;38719;51.418;7.286;2023-03-14T03:53:01;97287.94;;;10.77;74.28
52855;BME280;38719;51.418;7.286;2023-03-14T03:55:29;97287.03;;;10.57;75.27
52855;BME280;38719;51.418;7.286;2023-03-14T03:57:56;97279.06;;;10.36;75.70
52855;BME280;38719;51.418;7.286;2023-03-14T04:00:24;97285.06;;;10.59;75.28
52855;BME280;38719;51.418;7.286;2023-03-14T04:02:51;97285.56;;;10.43;75.26
52855;BME280;38719;51.418;7.286;2023-03-14T04:05:19;97275.28;;;10.28;75.92
52855;BME280;38719;51.418;7.286;2023-03-14T04:07:46;97278.72;;;10.19;76.54
52855;BME280;38719;51.418;7.286;2023-03-14T04:10:16;97279.00;;;10.26;76.67
52855;BME280;38719;51.418;7.286;2023-03-14T04:12:43;97277.34;;;10.25;76.45
52855;BME280;38719;51.418;7.286;2023-03-14T04:15:10;97275.78;;;10.22;75.99
52855;BME280;38719;51.418;7.286;2023-03-14T04:17:38;97274.72;;;10.04;75.94
52855;BME280;38719;51.418;7.286;2023-03-14T04:20:07;97270.16;;;9.94;76.68
52855;BME280;38719;51.418;7.286;2023-03-14T04:22:37;97262.41;;;10.03;77.27
52855;BME280;38719;51.418;7.286;2023-03-14T04:25:05;97264.09;;;10.04;77.01
52855;BME280;38719;51.418;7.286;2023-03-14T04:27:35;97267.19;;;10.09;76.61
52855;BME280;38719;51.418;7.286;2023-03-14T04:30:02;97257.31;;;9.99;77.19
52855;BME280;38719;51.418;7.286;2023-03-14T04:32:30;97258.28;;;9.98;76.50
52855;BME280;38719;51.418;7.286;2023-03-14T04:34:58;97274.97;;;10.00;76.66
52855;BME280;38719;51.418;7.286;2023-03-14T04:37:25;97264.56;;;9.88;78.34
52855;BME280;38719;51.418;7.286;2023-03-14T04:39:53;97274.75;;;10.13;77.89
52855;BME280;38719;51.418;7.286;2023-03-14T04:42:20;97279.47;;;10.31;77.09
52855;BME280;38719;51.418;7.286;2023-03-14T04:44:49;97279.34;;;10.32;77.38
52855;BME280;38719;51.418;7.286;2023-03-14T04:47:16;97273.81;;;10.24;77.93
52855;BME280;38719;51.418;7.286;2023-03-14T04:49:44;97256.31;;;10.43;77.99
52855;BME280;38719;51.418;7.286;2023-03-14T04:52:11;97246.56;;;10.53;77.12
52855;BME280;38719;51.418;7.286;2023-03-14T04:54:39;97236.44;;;10.47;77.24
52855;BME280;38719;51.418;7.286;2023-03-14T04:57:06;97237.19;;;10.69;76.94
52855;BME280;38719;51.418;7.286;2023-03-14T04:59:34;97230.91;;;10.70;76.70
52855;BME280;38719;51.418;7.286;2023-03-14T05:02:03;97230.47;;;10.64;77.31
52855;BME280;38719;51.418;7.286;2023-03-14T05:04:30;97234.47;;;10.49;77.98
52855;BME280;38719;51.418;7.286;2023-03-14T05:07:00;97230.94;;;10.39;78.41
52855;BME280;38719;51.418;7.286;2023-03-14T05:09:27;97247.28;;;10.65;78.44
52855;BME280;38719;51.418;7.286;2023-03-14T05:11:55;97246.84;;;10.60;78.05
52855;BME280;38719;51.418;7.286;2023-03-14T05:14:22;97241.88;;;10.45;78.58
52855;BME280;38719;51.418;7.286;2023-03-14T05:16:50;97242.31;;;10.41;78.20
52855;BME280;38719;51.418;7.286;2023-03-14T05:19:19;97250.03;;;10.54;77.99
52855;BME280;38719;51.418;7.286;2023-03-14T05:21:46;97225.09;;;10.45;78.06
52855;BME280;38719;51.418;7.286;2023-03-14T05:24:14;97224.53;;;10.41;77.95
52855;BME280;38719;51.418;7.286;2023-03-14T05:26:41;97210.84;;;10.25;78.48
52855;BME280;38719;51.418;7.286;2023-03-14T05:29:09;97203.63;;;10.06;79.04
52855;BME280;38719;51.418;7.286;2023-03-14T05:31:36;97208.09;;;10.05;79.31
52855;BME280;38719;51.418;7.286;2023-03-14T05:34:04;97209.31;;;10.22;79.16
52855;BME280;38719;51.418;7.286;2023-03-14T05:36:33;97203.94;;;10.43;78.60
52855;BME280;38719;51.418;7.286;2023-03-14T05:39:00;97207.66;;;10.31;78.60
52855;BME280;38719;51.418;7.286;2023-03-14T05:41:28;97196.09;;;10.42;78.27
52855;BME280;38719;51.418;7.286;2023-03-14T05:43:55;97185.91;;;10.47;78.08
52855;BME280;38719;51.418;7.286;2023-03-14T05:46:23;97190.91;;;10.40;78.52
52855;BME280;38719;51.418;7.286;2023-03-14T05:48:50;97178.41;;;10.31;79.11
52855;BME280;38719;51.418;7.286;2023-03-14T05:51:18;97173.31;;;10.18;79.58
52855;BME280;38719;51.418;7.286;2023-03-14T05:53:47;97178.09;;;10.24;79.47
52855;BME280;38719;51.418;7.286;2023-03-14T05:56:14;97177.75;;;10.08;79.67
52855;BME280;38719;51.418;7.286;2023-03-14T05:58:42;97170.59;;;10.08;80.18
52855;BME280;38719;51.418;7.286;2023-03-14T06:01:09;97182.88;;;9.99;80.57
52855;BME280;38719;51.418;7.286;2023-03-14T06:03:37;97176.59;;;10.00;80.72
52855;BME280;38719;51.418;7.286;2023-03-14T06:06:05;97166.72;;;9.81;81.21
52855;BME280;38719;51.418;7.286;2023-03-14T06:08:33;97168.91;;;9.97;81.21
52855;BME280;38719;51.418;7.286;2023-03-14T06:11:04;97166.19;;;9.88;80.90
52855;BME280;38719;51.418;7.286;2023-03-14T06:13:31;97165.34;;;9.87;81.67
52855;BME280;38719;51.418;7.286;2023-03-14T06:15:59;97177.13;;;9.94;81.63
52855;BME280;38719;51.418;7.286;2023-03-14T06:18:26;97175.28;;;9.85;81.65
52855;BME280;38719;51.418;7.286;2023-03-14T06:20:54;97176.78;;;9.78;81.63
52855;BME280;38719;51.418;7.286;2023-03-14T06:23:22;97173.06;;;9.90;80.64
52855;BME280;38719;51.418;7.286;2023-03-14T06:25:50;97181.53;;;10.05;81.42
52855;BME280;38719;51.418;7.286;2023-03-14T06:28:19;97173.59;;;10.15;80.76
52855;BME280;38719;51.418;7.286;2023-03-14T06:30:47;97179.59;;;10.17;79.96
52855;BME280;38719;51.418;7.286;2023-03-14T06:33:14;97191.59;;;10.02;80.59
52855;BME280;38719;51.418;7.286;2023-03-14T06:35:42;97196.47;;;9.96;81.19
52855;BME280;38719;51.418;7.286;2023-03-14T06:38:09;97183.78;;;10.10;80.38
52855;BME280;38719;51.418;7.286;2023-03-14T06:40:37;97195.97;;;10.12;80.62
52855;BME280;38719;51.418;7.286;2023-03-14T06:43:04;97186.34;;;10.21;79.98
52855;BME280;38719;51.418;7.286;2023-03-14T06:45:33;97184.63;;;10.10;79.99
52855;BME280;38719;51.418;7.286;2023-03-14T06:48:01;97185.94;;;9.95;80.74
52855;BME280;38719;51.418;7.286;2023-03-14T06:50:29;97185.44;;;10.11;80.56
52855;BME280;38719;51.418;7.286;2023-03-14T06:52:56;97188.44;;;10.18;80.20
52855;BME280;38719;51.418;7.286;2023-03-14T06:55:24;97196.97;;;10.21;80.26
52855;BME280;38719;51.418;7.286;2023-03-14T06:57:52;97188.69;;;10.14;80.28
52855;BME280;38719;51.418;7.286;2023-03-14T07:00:20;97193.22;;;10.24;80.11
52855;BME280;38719;51.418;7.286;2023-03-14T07:02:49;97194.75;;;10.26;80.36
52855;BME280;38719;51.418;7.286;2023-03-14T07:05:16;97200.22;;;10.25;80.32
52855;BME280;38719;51.418;7.286;2023-03-14T07:07:44;97190.81;;;10.21;80.21
52855;BME280;38719;51.418;7.286;2023-03-14T07:10:11;97200.06;;;10.26;80.32
52855;BME280;38719;51.418;7.286;2023-03-14T07:12:39;97196.59;;;10.36;79.79
52855;BME280;38719;51.418;7.286;2023-03-14T07:15:07;97207.97;;;10.38;79.66
52855;BME280;38719;51.418;7.286;2023-03-14T07:17:44;97200.44;;;10.43;80.11
52855;BME280;38719;51.418;7.286;2023-03-14T07:20:13;97199.38;;;10.65;79.46
52855;BME280;38719;51.418;7.286;2023-03-14T07:22:40;97194.94;;;10.75;78.69
52855;BME280;38719;51.418;7.286;2023-03-14T07:25:08;97201.75;;;10.58;79.02
52855;BME280;38719;51.418;7.286;2023-03-14T07:27:38;97200.84;;;10.48;78.73
52855;BME280;38719;51.418;7.286;2023-03-14T07:30:06;97205.22;;;10.59;79.33
52855;BME280;38719;51.418;7.286;2023-03-14T07:32:34;97193.09;;;10.35;79.47
52855;BME280;38719;51.418;7.286;2023-03-14T07:35:01;97208.31;;;10.54;79.07
52855;BME280;38719;51.418;7.286;2023-03-14T07:37:30;97210.31;;;10.62;78.72
52855;BME280;38719;51.418;7.286;2023-03-14T07:39:58;97214.44;;;10.45;79.18
52855;BME280;38719;51.418;7.286;2023-03-14T07:42:25;97202.97;;;10.54;79.16
52855;BME280;38719;51.418;7.286;2023-03-14T07:44:53;97220.13;;;10.71;79.09
52855;BME280;38719;51.418;7.286;2023-03-14T07:47:20;97216.44;;;10.62;78.69
52855;BME280;38719;51.418;7.286;2023-03-14T07:49:47;97217.19;;;10.74;79.07
52855;BME280;38719;51.418;7.286;2023-03-14T07:52:15;97215.09;;;10.78;78.62
52855;BME280;38719;51.418;7.286;2023-03-14T07:54:44;97219.16;;;10.82;78.53
52855;BME280;38719;51.418;7.286;2023-03-14T07:57:11;97219.31;;;10.80;78.62
52855;BME280;38719;51.418;7.286;2023-03-14T07:59:39;97225.31;;;10.92;79.74
52855;BME280;38719;51.418;7.286;2023-03-14T08:02:08;97219.75;;;10.95;79.27
52855;BME280;38719;51.418;7.286;2023-03-14T08:04:39;97218.22;;;11.03;78.75
52855;BME280;38719;51.418;7.286;2023-03-14T08:07:06;97214.84;;;11.01;79.36
52855;BME280;38719;51.418;7.286;2023-03-14T08:09:34;97213.00;;;11.11;78.64
52855;BME280;38719;51.418;7.286;2023-03-14T08:12:03;97213.13;;;10.80;78.98
52855;BME280;38719;51.418;7.286;2023-03-14T08:14:31;97222.00;;;10.90;79.45
52855;BME280;38719;51.418;7.286;2023-03-14T08:16:58;97217.03;;;10.76;79.56
52855;BME280;38719;51.418;7.286;2023-03-14T08:19:26;97210.06;;;10.94;79.72
52855;BME280;38719;51.418;7.286;2023-03-14T08:21:53;97211.78;;;11.15;78.99
52855;BME280;38719;51.418;7.286;2023-03-14T08:24:21;97212.88;;;11.22;79.02
52855;BME280;38719;51.418;7.286;2023-03-14T08:26:48;97210.66;;;11.27;79.07
52855;BME280;38719;51.418;7.286;2023-03-14T08:29:17;97217.38;;;11.32;78.93
52855;BME280;38719;51.418;7.286;2023-03-14T08:31:45;97221.72;;;11.52;77.53
52855;BME280;38719;51.418;7.286;2023-03-14T08:34:12;97226.34;;;11.50;78.52
52855;BME280;38719;51.418;7.286;2023-03-14T08:36:40;97223.81;;;11.39;78.15
52855;BME280;38719;51.418;7.286;2023-03-14T08:39:08;97228.16;;;11.10;78.73
52855;BME280;38719;51.418;7.286;2023-03-14T08:41:36;97227.19;;;11.21;78.42
52855;BME280;38719;51.418;7.286;2023-03-14T08:44:06;97233.66;;;11.19;78.46
52855;BME280;38719;51.418;7.286;2023-03-14T08:46:35;97232.78;;;11.18;78.71
52855;BME280;38719;51.418;7.286;2023-03-14T08:49:03;97232.38;;;11.13;78.60
52855;BME280;38719;51.418;7.286;2023-03-14T08:51:31;97233.66;;;11.19;78.64
52855;BME280;38719;51.418;7.286;2023-03-14T08:53:58;97235.31;;;11.29;79.26
52855;BME280;38719;51.418;7.286;2023-03-14T08:56:26;97236.03;;;11.41;78.40
52855;BME280;38719;51.418;7.286;2023-03-14T08:58:53;97243.16;;;11.60;77.36
52855;BME280;38719;51.418;7.286;2023-03-14T09:01:20;97235.72;;;11.35;77.54
52855;BME280;38719;51.418;7.286;2023-03-14T09:03:51;97245.97;;;11.29;78.69
52855;BME280;38719;51.418;7.286;2023-03-14T09:06:19;97239.50;;;11.52;78.85
52855;BME280;38719;51.418;7.286;2023-03-14T09:08:47;97234.97;;;11.82;76.97
52855;BME280;38719;51.418;7.286;2023-03-14T09:11:15;97240.88;;;11.85;76.86
52855;BME280;38719;51.418;7.286;2023-03-14T09:13:44;97242.47;;;11.68;77.68
52855;BME280;38719;51.418;7.286;2023-03-14T09:16:12;97238.09;;;11.67;77.34
52855;BME280;38719;51.418;7.286;2023-03-14T09:18:39;97255.91;;;11.76;77.49
52855;BME280;38719;51.418;7.286;2023-03-14T09:21:08;97261.22;;;11.76;77.97
52855;BME280;38719;51.418;7.286;2023-03-14T09:23:36;97261.63;;;11.82;77.31
52855;BME280;38719;51.418;7.286;2023-03-14T09:26:03;97279.34;;;11.73;78.58
52855;BME280;38719;51.418;7.286;2023-03-14T09:28:31;97281.59;;;11.58;78.89
52855;BME280;38719;51.418;7.286;2023-03-14T09:31:05;97293.09;;;11.58;79.34
52855;BME280;38719;51.418;7.286;2023-03-14T09:33:32;97300.81;;;11.52;79.71
52855;BME280;38719;51.418;7.286;2023-03-14T09:36:00;97291.28;;;11.49;79.08
52855;BME280;38719;51.418;7.286;2023-03-14T09:38:29;97299.69;;;11.54;79.67
52855;BME280;38719;51.418;7.286;2023-03-14T09:40:58;97314.00;;;11.43;80.08
52855;BME280;38719;51.418;7.286;2023-03-14T09:43:28;97313.13;;;11.33;80.55
52855;BME280;38719;51.418;7.286;2023-03-14T09:45:57;97354.44;;;10.98;79.84
52855;BME280;38719;51.418;7.286;2023-03-14T09:48:29;97374.78;;;10.68;79.22
52855;BME280;38719;51.418;7.286;2023-03-14T09:50:58;97387.78;;;10.71;77.95
52855;BME280;38719;51.418;7.286;2023-03-14T09:53:37;97394.22;;;10.69;76.78
52855;BME280;38719;51.418;7.286;2023-03-14T09:56:10;97410.22;;;10.47;74.99
52855;BME280;38719;51.418;7.286;2023-03-14T09:58:41;97409.03;;;10.61;75.78
52855;BME280;38719;51.418;7.286;2023-03-14T10:01:13;97421.44;;;10.51;74.42
52855;BME280;38719;51.418;7.286;2023-03-14T10:03:44;97407.16;;;10.31;74.73
52855;BME280;38719;51.418;7.286;2023-03-14T10:06:13;97440.38;;;10.37;75.40
52855;BME280;38719;51.418;7.286;2023-03-14T10:08:43;97448.84;;;10.09;75.73
52855;BME280;38719;51.418;7.286;2023-03-14T10:11:14;97467.41;;;10.21;75.75
52855;BME280;38719;51.418;7.286;2023-03-14T10:13:50;97480.06;;;9.96;75.49
52855;BME280;38719;51.418;7.286;2023-03-14T10:16:29;97503.94;;;9.63;76.78
52855;BME280;38719;51.418;7.286;2023-03-14T10:19:01;97506.84;;;9.72;77.57
52855;BME280;38719;51.418;7.286;2023-03-14T10:21:31;97505.84;;;9.84;76.41
52855;BME280;38719;51.418;7.286;2023-03-14T10:24:19;97524.69;;;9.81;76.79
52855;BME280;38719;51.418;7.286;2023-03-14T10:26:52;97535.03;;;10.07;76.17
52855;BME280;38719;51.418;7.286;2023-03-14T10:29:20;97537.72;;;9.95;75.17
52855;BME280;38719;51.418;7.286;2023-03-14T10:31:52;97545.19;;;10.02;75.07
52855;BME280;38719;51.418;7.286;2023-03-14T10:34:25;97557.06;;;9.97;74.99
52855;BME280;38719;51.418;7.286;2023-03-14T10:36:56;97559.25;;;9.81;75.46
52855;BME280;38719;51.418;7.286;2023-03-14T10:39:37;97582.09;;;9.72;75.43
52855;BME280;38719;51.418;7.286;2023-03-14T10:42:16;97582.75;;;10.08;74.94
52855;BME280;38719;51.418;7.286;2023-03-14T10:44:44;97594.97;;;9.99;75.25
52855;BME280;38719;51.418;7.286;2023-03-14T10:47:17;97605.97;;;9.95;75.73
52855;BME280;38719;51.418;7.286;2023-03-14T10:49:45;97633.31;;;9.86;75.53
52855;BME280;38719;51.418;7.286;2023-03-14T10:52:18;97625.91;;;9.32;75.90
52855;BME280;38719;51.418;7.286;2023-03-14T10:55:13;97656.78;;;9.22;76.10
52855;BME280;38719;51.418;7.286;2023-03-14T10:57:41;97665.69;;;9.10;77.57
52855;BME280;38719;51.418;7.286;2023-03-14T11:00:14;97686.31;;;9.42;76.91
52855;BME280;38719;51.418;7.286;2023-03-14T11:02:58;97693.72;;;9.25;75.25
52855;BME280;38719;51.418;7.286;2023-03-14T11:05:35;97706.41;;;9.33;74.89
52855;BME280;38719;51.418;7.286;2023-03-14T11:08:08;97718.56;;;9.13;74.76
52855;BME280;38719;51.418;7.286;2023-03-14T11:10:41;97736.50;;;9.09;73.90
52855;BME280;38719;51.418;7.286;2023-03-14T11:13:16;97748.09;;;9.08;74.30
52855;BME280;38719;51.418;7.286;2023-03-14T11:15:53;97758.63;;;9.10;73.57
52855;BME280;38719;51.418;7.286;2023-03-14T11:21:35;97796.22;;;8.79;72.40
52855;BME280;38719;51.418;7.286;2023-03-14T11:24:18;97823.31;;;8.46;73.73
52855;BME280;38719;51.418;7.286;2023-03-14T11:26:54;97834.47;;;8.51;72.82
52855;BME280;38719;51.418;7.286;2023-03-14T11:29:29;97826.34;;;8.91;71.49
52855;BME280;38719;51.418;7.286;2023-03-14T11:32:01;97839.44;;;9.06;70.90
52855;BME280;38719;51.418;7.286;2023-03-14T11:34:35;97843.66;;;8.84;70.04
52855;BME280;38719;51.418;7.286;2023-03-14T11:37:06;97852.00;;;8.91;70.39
52855;BME280;38719;51.418;7.286;2023-03-14T11:39:40;97857.69;;;9.10;69.56
52855;BME280;38719;51.418;7.286;2023-03-14T11:42:12;97883.66;;;8.81;68.65
52855;BME280;38719;51.418;7.286;2023-03-14T11:44:44;97888.03;;;8.56;69.92
52855;BME280;38719;51.418;7.286;2023-03-14T11:47:15;97905.03;;;8.66;67.69
52855;BME280;38719;51.418;7.286;2023-03-14T11:49:48;97907.78;;;8.39;69.22
52855;BME280;38719;51.418;7.286;2023-03-14T11:52:20;97929.22;;;8.75;68.78
52855;BME280;38719;51.418;7.286;2023-03-14T11:54:53;97918.09;;;8.69;66.52
52855;BME280;38719;51.418;7.286;2023-03-14T11:57:25;97947.22;;;8.31;66.50
52855;BME280;38719;51.418;7.286;2023-03-14T11:59:55;97933.66;;;8.35;67.43
52855;BME280;38719;51.418;7.286;2023-03-14T12:02:31;97934.19;;;8.41;66.97
52855;BME280;38719;51.418;7.286;2023-03-14T12:05:27;97956.34;;;8.27;67.71
52855;BME280;38719;51.418;7.286;2023-03-14T12:08:18;97965.22;;;8.53;66.83
52855;BME280;38719;51.418;7.286;2023-03-14T12:10:51;97973.66;;;8.45;67.89
52855;BME280;38719;51.418;7.286;2023-03-14T12:13:21;97982.88;;;8.39;68.10
52855;BME280;38719;51.418;7.286;2023-03-14T12:15:50;97996.81;;;8.16;67.47
52855;BME280;38719;51.418;7.286;2023-03-14T12:18:26;98000.00;;;8.08;67.98
52855;BME280;38719;51.418;7.286;2023-03-14T12:20:57;98013.53;;;8.03;67.31
52855;BME280;38719;51.418;7.286;2023-03-14T12:23:26;98009.19;;;7.75;68.83
52855;BME280;38719;51.418;7.286;2023-03-14T12:26:13;98021.38;;;7.78;68.74
52855;BME280;38719;51.418;7.286;2023-03-14T12:28:44;98022.56;;;8.01;68.77
52855;BME280;38719;51.418;7.286;2023-03-14T12:31:43;98041.66;;;8.06;68.97
52855;BME280;38719;51.418;7.286;2023-03-14T12:34:27;98052.44;;;8.03;69.33
52855;BME280;38719;51.418;7.286;2023-03-14T12:37:01;98063.44;;;8.24;68.50
52855;BME280;38719;51.418;7.286;2023-03-14T12:39:35;98075.47;;;8.30;69.24
52855;BME280;38719;51.418;7.286;2023-03-14T12:42:05;98077.41;;;8.81;68.27
52855;BME280;38719;51.418;7.286;2023-03-14T12:44:44;98092.03;;;8.74;68.58
52855;BME280;38719;51.418;7.286;2023-03-14T12:50:15;98091.97;;;8.88;69.48
52855;BME280;38719;51.418;7.286;2023-03-14T12:53:00;98099.22;;;9.12;67.40
52855;BME280;38719;51.418;7.286;2023-03-14T12:55:36;98108.69;;;9.16;66.96
52855;BME280;38719;51.418;7.286;2023-03-14T12:58:08;98117.94;;;9.36;67.01
52855;BME280;38719;51.418;7.286;2023-03-14T13:00:51;98117.56;;;9.79;66.19
52855;BME280;38719;51.418;7.286;2023-03-14T13:03:24;98129.72;;;9.45;65.80
52855;BME280;38719;51.418;7.286;2023-03-14T13:05:56;98129.63;;;9.59;64.35
52855;BME280;38719;51.418;7.286;2023-03-14T13:08:36;98134.50;;;9.01;66.61
52855;BME280;38719;51.418;7.286;2023-03-14T13:11:08;98146.91;;;9.00;67.40
52855;BME280;38719;51.418;7.286;2023-03-14T13:13:42;98149.50;;;8.75;67.76
52855;BME280;38719;51.418;7.286;2023-03-14T13:16:17;98173.19;;;8.78;69.14
52855;BME280;38719;51.418;7.286;2023-03-14T13:18:47;98191.72;;;7.94;69.45
52855;BME280;38719;51.418;7.286;2023-03-14T13:21:17;98200.81;;;7.75;69.95
52855;BME280;38719;51.418;7.286;2023-03-14T13:23:57;98218.78;;;7.70;70.36
52855;BME280;38719;51.418;7.286;2023-03-14T13:26:32;98229.63;;;7.06;71.71